sensor_id;sensor_type;location;lat;lon;timestamp;temperature;humidity
40434;DHT22;26146;51.114;5.654;2022-11-15T00:00:39;11.70;99.90
40434;DHT22;26146;51.114;5.654;2022-11-15T00:04:40;11.60;99.90
40434;DHT22;26146;51.114;5.654;2022-11-15T00:08:41;11.80;99.90
40434;DHT22;26146;51.114;5.654;2022-11-15T00:12:42;11.80;99.90
40434;DHT22;26146;51.114;5.654;2022-11-15T00:16:43;11.80;99.90
40434;DHT22;26146;51.114;5.654;2022-11-15T00:20:44;11.80;99.90
40434;DHT22;26146;51.114;5.654;2022-11-15T00:24:45;11.80;99.90
40434;DHT22;26146;51.114;5.654;2022-11-15T00:28:48;11.80;99.90
40434;DHT22;26146;51.114;5.654;2022-11-15T00:32:52;11.80;99.90
40434;DHT22;26146;51.114;5.654;2022-11-15T00:36:53;11.90;99.90
40434;DHT22;26146;51.114;5.654;2022-11-15T00:40:54;12.00;99.90
40434;DHT22;26146;51.114;5.654;2022-11-15T00:44:54;12.00;99.90
40434;DHT22;26146;51.114;5.654;2022-11-15T00:48:55;12.00;99.90
40434;DHT22;26146;51.114;5.654;2022-11-15T00:52:56;12.10;99.90
40434;DHT22;26146;51.114;5.654;2022-11-15T00:56:57;12.10;99.90
40434;DHT22;26146;51.114;5.654;2022-11-15T01:01:08;12.10;99.90
40434;DHT22;26146;51.114;5.654;2022-11-15T01:05:10;12.30;99.90
40434;DHT22;26146;51.114;5.654;2022-11-15T01:09:11;12.30;99.90
40434;DHT22;26146;51.114;5.654;2022-11-15T01:13:12;12.30;99.90
40434;DHT22;26146;51.114;5.654;2022-11-15T01:17:15;12.20;99.90
40434;DHT22;26146;51.114;5.654;2022-11-15T01:21:18;12.30;99.90
40434;DHT22;26146;51.114;5.654;2022-11-15T01:25:19;12.20;99.90
40434;DHT22;26146;51.114;5.654;2022-11-15T01:29:20;12.20;99.90
40434;DHT22;26146;51.114;5.654;2022-11-15T01:33:21;12.30;99.90
40434;DHT22;26146;51.114;5.654;2022-11-15T01:37:21;12.30;99.90
40434;DHT22;26146;51.114;5.654;2022-11-15T01:41:26;12.30;99.90
40434;DHT22;26146;51.114;5.654;2022-11-15T01:45:27;12.40;99.90
40434;DHT22;26146;51.114;5.654;2022-11-15T01:49:31;12.40;99.90
40434;DHT22;26146;51.114;5.654;2022-11-15T01:53:34;12.40;99.90
40434;DHT22;26146;51.114;5.654;2022-11-15T01:57:38;12.40;99.90
40434;DHT22;26146;51.114;5.654;2022-11-15T02:01:40;12.40;99.90
40434;DHT22;26146;51.114;5.654;2022-11-15T02:05:43;12.60;99.90
40434;DHT22;26146;51.114;5.654;2022-11-15T02:09:44;12.60;99.90
40434;DHT22;26146;51.114;5.654;2022-11-15T02:13:46;12.70;99.90
40434;DHT22;26146;51.114;5.654;2022-11-15T02:18:00;12.80;99.90
40434;DHT22;26146;51.114;5.654;2022-11-15T02:27:00;12.80;99.90
40434;DHT22;26146;51.114;5.654;2022-11-15T02:35:42;12.90;99.90
40434;DHT22;26146;51.114;5.654;2022-11-15T02:44:23;12.80;99.90
40434;DHT22;26146;51.114;5.654;2022-11-15T02:48:25;12.90;99.90
40434;DHT22;26146;51.114;5.654;2022-11-15T02:52:26;13.00;99.90
40434;DHT22;26146;51.114;5.654;2022-11-15T02:56:27;13.20;99.90
40434;DHT22;26146;51.114;5.654;2022-11-15T03:00:35;13.20;99.90
40434;DHT22;26146;51.114;5.654;2022-11-15T03:04:58;13.20;99.90
40434;DHT22;26146;51.114;5.654;2022-11-15T03:09:19;13.10;99.90
40434;DHT22;26146;51.114;5.654;2022-11-15T03:13:31;13.10;99.90
40434;DHT22;26146;51.114;5.654;2022-11-15T03:17:37;13.20;99.90
40434;DHT22;26146;51.114;5.654;2022-11-15T03:21:40;13.20;99.90
40434;DHT22;26146;51.114;5.654;2022-11-15T03:25:46;13.20;99.90
40434;DHT22;26146;51.114;5.654;2022-11-15T03:29:55;13.20;99.90
40434;DHT22;26146;51.114;5.654;2022-11-15T03:33:58;13.30;99.90
40434;DHT22;26146;51.114;5.654;2022-11-15T03:42:27;13.40;99.90
40434;DHT22;26146;51.114;5.654;2022-11-15T03:46:46;13.30;99.90
40434;DHT22;26146;51.114;5.654;2022-11-15T03:50:49;13.40;99.90
40434;DHT22;26146;51.114;5.654;2022-11-15T03:54:55;13.30;99.90
40434;DHT22;26146;51.114;5.654;2022-11-15T03:58:56;13.30;99.90
40434;DHT22;26146;51.114;5.654;2022-11-15T04:02:57;13.30;99.90
40434;DHT22;26146;51.114;5.654;2022-11-15T04:06:58;13.30;99.90
40434;DHT22;26146;51.114;5.654;2022-11-15T04:10:59;13.30;99.90
40434;DHT22;26146;51.114;5.654;2022-11-15T04:15:04;13.40;99.90
40434;DHT22;26146;51.114;5.654;2022-11-15T04:19:08;13.40;99.90
40434;DHT22;26146;51.114;5.654;2022-11-15T04:23:28;13.40;99.90
40434;DHT22;26146;51.114;5.654;2022-11-15T04:28:07;13.30;99.90
40434;DHT22;26146;51.114;5.654;2022-11-15T04:32:08;13.30;99.90
40434;DHT22;26146;51.114;5.654;2022-11-15T04:36:09;13.20;99.90
40434;DHT22;26146;51.114;5.654;2022-11-15T04:40:28;13.20;99.90
40434;DHT22;26146;51.114;5.654;2022-11-15T04:44:29;13.10;99.90
40434;DHT22;26146;51.114;5.654;2022-11-15T04:48:30;13.10;99.90
40434;DHT22;26146;51.114;5.654;2022-11-15T04:52:31;13.20;99.90
40434;DHT22;26146;51.114;5.654;2022-11-15T04:56:32;13.40;99.90
40434;DHT22;26146;51.114;5.654;2022-11-15T05:00:33;13.40;99.90
40434;DHT22;26146;51.114;5.654;2022-11-15T05:04:34;13.30;99.90
40434;DHT22;26146;51.114;5.654;2022-11-15T05:08:37;13.30;99.90
40434;DHT22;26146;51.114;5.654;2022-11-15T05:12:38;13.30;99.90
40434;DHT22;26146;51.114;5.654;2022-11-15T05:16:41;13.30;99.90
40434;DHT22;26146;51.114;5.654;2022-11-15T05:20:42;13.30;99.90
40434;DHT22;26146;51.114;5.654;2022-11-15T05:24:43;13.30;99.90
40434;DHT22;26146;51.114;5.654;2022-11-15T05:28:44;13.30;99.90
40434;DHT22;26146;51.114;5.654;2022-11-15T05:32:45;13.20;99.90
40434;DHT22;26146;51.114;5.654;2022-11-15T05:36:46;13.20;99.90
40434;DHT22;26146;51.114;5.654;2022-11-15T05:40:47;13.30;99.90
40434;DHT22;26146;51.114;5.654;2022-11-15T05:44:49;13.20;99.90
40434;DHT22;26146;51.114;5.654;2022-11-15T05:48:54;13.20;99.90
40434;DHT22;26146;51.114;5.654;2022-11-15T05:52:56;13.10;99.90
40434;DHT22;26146;51.114;5.654;2022-11-15T05:56:57;13.10;99.90
40434;DHT22;26146;51.114;5.654;2022-11-15T06:00:59;12.80;99.90
40434;DHT22;26146;51.114;5.654;2022-11-15T06:05:00;12.80;99.90
40434;DHT22;26146;51.114;5.654;2022-11-15T06:09:02;12.70;99.90
40434;DHT22;26146;51.114;5.654;2022-11-15T06:13:29;12.60;99.90
40434;DHT22;26146;51.114;5.654;2022-11-15T06:17:30;12.60;99.90
40434;DHT22;26146;51.114;5.654;2022-11-15T06:21:31;12.70;99.90
40434;DHT22;26146;51.114;5.654;2022-11-15T06:25:32;12.50;99.90
40434;DHT22;26146;51.114;5.654;2022-11-15T06:29:33;12.30;99.90
40434;DHT22;26146;51.114;5.654;2022-11-15T06:33:34;12.20;99.90
40434;DHT22;26146;51.114;5.654;2022-11-15T06:37:35;12.20;99.90
40434;DHT22;26146;51.114;5.654;2022-11-15T06:41:38;12.00;99.90
40434;DHT22;26146;51.114;5.654;2022-11-15T06:45:39;12.10;99.90
40434;DHT22;26146;51.114;5.654;2022-11-15T06:49:40;12.00;99.90
40434;DHT22;26146;51.114;5.654;2022-11-15T06:53:41;12.10;99.90
40434;DHT22;26146;51.114;5.654;2022-11-15T06:57:52;12.00;99.90
40434;DHT22;26146;51.114;5.654;2022-11-15T07:01:53;12.00;99.90
40434;DHT22;26146;51.114;5.654;2022-11-15T07:05:55;12.10;99.90
40434;DHT22;26146;51.114;5.654;2022-11-15T07:09:56;12.10;99.90
40434;DHT22;26146;51.114;5.654;2022-11-15T07:13:57;12.00;99.90
40434;DHT22;26146;51.114;5.654;2022-11-15T07:18:01;12.00;99.90
40434;DHT22;26146;51.114;5.654;2022-11-15T07:22:02;12.00;99.90
40434;DHT22;26146;51.114;5.654;2022-11-15T07:26:03;12.00;99.90
40434;DHT22;26146;51.114;5.654;2022-11-15T07:30:04;11.80;99.90
40434;DHT22;26146;51.114;5.654;2022-11-15T07:34:05;11.80;99.90
40434;DHT22;26146;51.114;5.654;2022-11-15T07:38:06;11.80;99.90
40434;DHT22;26146;51.114;5.654;2022-11-15T07:42:07;11.90;99.90
40434;DHT22;26146;51.114;5.654;2022-11-15T07:46:27;12.00;99.90
40434;DHT22;26146;51.114;5.654;2022-11-15T07:50:28;12.10;99.90
40434;DHT22;26146;51.114;5.654;2022-11-15T07:54:30;12.20;99.90
40434;DHT22;26146;51.114;5.654;2022-11-15T07:58:31;12.30;99.90
40434;DHT22;26146;51.114;5.654;2022-11-15T08:02:32;12.50;99.90
40434;DHT22;26146;51.114;5.654;2022-11-15T08:06:33;12.50;99.90
40434;DHT22;26146;51.114;5.654;2022-11-15T08:10:34;12.50;99.90
40434;DHT22;26146;51.114;5.654;2022-11-15T08:14:35;12.40;99.90
40434;DHT22;26146;51.114;5.654;2022-11-15T08:18:36;12.40;99.90
40434;DHT22;26146;51.114;5.654;2022-11-15T08:22:37;12.40;99.90
40434;DHT22;26146;51.114;5.654;2022-11-15T08:26:38;12.40;99.90
40434;DHT22;26146;51.114;5.654;2022-11-15T08:30:44;12.50;99.90
40434;DHT22;26146;51.114;5.654;2022-11-15T08:34:46;12.30;99.90
40434;DHT22;26146;51.114;5.654;2022-11-15T08:38:47;12.40;99.90
40434;DHT22;26146;51.114;5.654;2022-11-15T08:42:47;12.50;99.90
40434;DHT22;26146;51.114;5.654;2022-11-15T08:46:48;12.40;99.90
40434;DHT22;26146;51.114;5.654;2022-11-15T08:50:53;12.40;99.90
40434;DHT22;26146;51.114;5.654;2022-11-15T08:54:55;12.30;99.90
40434;DHT22;26146;51.114;5.654;2022-11-15T08:58:58;12.10;99.90
40434;DHT22;26146;51.114;5.654;2022-11-15T09:02:59;12.10;99.90
40434;DHT22;26146;51.114;5.654;2022-11-15T09:07:00;12.30;99.90
40434;DHT22;26146;51.114;5.654;2022-11-15T09:11:05;12.30;99.90
40434;DHT22;26146;51.114;5.654;2022-11-15T09:15:09;12.40;99.90
40434;DHT22;26146;51.114;5.654;2022-11-15T09:19:10;12.50;99.90
40434;DHT22;26146;51.114;5.654;2022-11-15T09:23:11;12.50;99.90
40434;DHT22;26146;51.114;5.654;2022-11-15T09:27:12;12.40;99.90
40434;DHT22;26146;51.114;5.654;2022-11-15T09:31:14;12.40;99.90
40434;DHT22;26146;51.114;5.654;2022-11-15T09:35:15;12.50;99.90
40434;DHT22;26146;51.114;5.654;2022-11-15T09:39:16;12.50;99.90
40434;DHT22;26146;51.114;5.654;2022-11-15T09:48:31;12.70;99.90
40434;DHT22;26146;51.114;5.654;2022-11-15T09:52:36;12.80;99.90
40434;DHT22;26146;51.114;5.654;2022-11-15T09:56:41;13.00;99.90
40434;DHT22;26146;51.114;5.654;2022-11-15T10:00:44;13.00;99.90
40434;DHT22;26146;51.114;5.654;2022-11-15T10:04:49;13.00;99.90
40434;DHT22;26146;51.114;5.654;2022-11-15T10:13:15;13.20;99.90
40434;DHT22;26146;51.114;5.654;2022-11-15T10:25:59;13.20;99.90
40434;DHT22;26146;51.114;5.654;2022-11-15T10:30:00;13.20;99.90
40434;DHT22;26146;51.114;5.654;2022-11-15T10:38:14;13.30;99.90
40434;DHT22;26146;51.114;5.654;2022-11-15T10:46:22;13.50;99.90
40434;DHT22;26146;51.114;5.654;2022-11-15T10:50:31;13.50;99.90
40434;DHT22;26146;51.114;5.654;2022-11-15T10:58:55;14.20;99.90
40434;DHT22;26146;51.114;5.654;2022-11-15T11:03:03;14.40;99.90
40434;DHT22;26146;51.114;5.654;2022-11-15T11:07:20;14.60;99.90
40434;DHT22;26146;51.114;5.654;2022-11-15T11:11:22;14.70;99.90
40434;DHT22;26146;51.114;5.654;2022-11-15T11:15:27;14.70;99.90
40434;DHT22;26146;51.114;5.654;2022-11-15T11:23:55;14.50;99.90
40434;DHT22;26146;51.114;5.654;2022-11-15T11:32:33;14.90;99.90
40434;DHT22;26146;51.114;5.654;2022-11-15T11:46:32;14.90;99.90
40434;DHT22;26146;51.114;5.654;2022-11-15T11:50:38;15.20;99.90
40434;DHT22;26146;51.114;5.654;2022-11-15T11:59:25;15.40;99.90
40434;DHT22;26146;51.114;5.654;2022-11-15T12:07:44;15.30;99.90
40434;DHT22;26146;51.114;5.654;2022-11-15T12:16:23;15.50;99.60
40434;DHT22;26146;51.114;5.654;2022-11-15T12:20:27;15.40;99.70
40434;DHT22;26146;51.114;5.654;2022-11-15T12:24:41;15.60;99.00
40434;DHT22;26146;51.114;5.654;2022-11-15T12:28:57;15.60;99.00
40434;DHT22;26146;51.114;5.654;2022-11-15T12:33:00;15.30;99.60
40434;DHT22;26146;51.114;5.654;2022-11-15T12:37:02;15.30;99.70
40434;DHT22;26146;51.114;5.654;2022-11-15T12:41:28;15.20;99.80
40434;DHT22;26146;51.114;5.654;2022-11-15T12:45:35;15.10;99.90
40434;DHT22;26146;51.114;5.654;2022-11-15T12:53:38;15.00;99.90
40434;DHT22;26146;51.114;5.654;2022-11-15T12:57:39;15.20;99.90
40434;DHT22;26146;51.114;5.654;2022-11-15T13:13:45;15.40;99.90
40434;DHT22;26146;51.114;5.654;2022-11-15T13:17:53;15.70;99.90
40434;DHT22;26146;51.114;5.654;2022-11-15T13:21:54;15.80;99.90
40434;DHT22;26146;51.114;5.654;2022-11-15T13:26:34;15.70;99.90
40434;DHT22;26146;51.114;5.654;2022-11-15T13:30:35;15.70;99.90
40434;DHT22;26146;51.114;5.654;2022-11-15T13:34:37;15.80;99.90
40434;DHT22;26146;51.114;5.654;2022-11-15T13:38:39;15.70;99.90
40434;DHT22;26146;51.114;5.654;2022-11-15T13:42:41;15.60;99.90
40434;DHT22;26146;51.114;5.654;2022-11-15T13:46:42;15.60;99.90
40434;DHT22;26146;51.114;5.654;2022-11-15T13:50:43;15.60;99.90
40434;DHT22;26146;51.114;5.654;2022-11-15T13:54:50;15.60;99.90
40434;DHT22;26146;51.114;5.654;2022-11-15T13:58:55;15.40;99.90
40434;DHT22;26146;51.114;5.654;2022-11-15T14:02:57;15.30;99.90
40434;DHT22;26146;51.114;5.654;2022-11-15T14:07:20;15.10;99.90
40434;DHT22;26146;51.114;5.654;2022-11-15T14:11:23;15.10;99.90
40434;DHT22;26146;51.114;5.654;2022-11-15T14:15:34;15.10;99.90
40434;DHT22;26146;51.114;5.654;2022-11-15T14:19:37;15.20;99.90
40434;DHT22;26146;51.114;5.654;2022-11-15T14:24:17;15.20;99.90
40434;DHT22;26146;51.114;5.654;2022-11-15T14:32:28;15.40;99.90
40434;DHT22;26146;51.114;5.654;2022-11-15T14:36:29;15.30;99.90
40434;DHT22;26146;51.114;5.654;2022-11-15T14:40:30;15.10;99.90
40434;DHT22;26146;51.114;5.654;2022-11-15T14:44:32;15.20;99.90
40434;DHT22;26146;51.114;5.654;2022-11-15T14:48:33;15.00;99.90
40434;DHT22;26146;51.114;5.654;2022-11-15T14:52:34;15.10;99.90
40434;DHT22;26146;51.114;5.654;2022-11-15T14:56:37;14.90;99.90
40434;DHT22;26146;51.114;5.654;2022-11-15T15:00:40;15.00;99.90
40434;DHT22;26146;51.114;5.654;2022-11-15T15:04:41;15.00;99.90
40434;DHT22;26146;51.114;5.654;2022-11-15T15:08:41;15.10;99.90
40434;DHT22;26146;51.114;5.654;2022-11-15T15:12:43;15.00;99.90
40434;DHT22;26146;51.114;5.654;2022-11-15T15:16:44;14.90;99.90
40434;DHT22;26146;51.114;5.654;2022-11-15T15:20:56;14.90;99.90
40434;DHT22;26146;51.114;5.654;2022-11-15T15:25:00;14.80;99.90
40434;DHT22;26146;51.114;5.654;2022-11-15T15:29:01;14.80;99.90
40434;DHT22;26146;51.114;5.654;2022-11-15T15:33:02;14.80;99.90
40434;DHT22;26146;51.114;5.654;2022-11-15T15:37:23;14.80;99.90
40434;DHT22;26146;51.114;5.654;2022-11-15T15:41:24;14.70;99.90
40434;DHT22;26146;51.114;5.654;2022-11-15T15:45:28;14.90;99.90
40434;DHT22;26146;51.114;5.654;2022-11-15T15:49:30;14.70;99.90
40434;DHT22;26146;51.114;5.654;2022-11-15T15:53:31;14.70;99.90
40434;DHT22;26146;51.114;5.654;2022-11-15T15:57:32;14.60;99.90
40434;DHT22;26146;51.114;5.654;2022-11-15T16:01:37;14.60;99.90
40434;DHT22;26146;51.114;5.654;2022-11-15T16:05:39;14.60;99.90
40434;DHT22;26146;51.114;5.654;2022-11-15T16:09:50;14.50;99.90
40434;DHT22;26146;51.114;5.654;2022-11-15T16:14:00;14.50;99.90
40434;DHT22;26146;51.114;5.654;2022-11-15T16:18:05;14.30;99.90
40434;DHT22;26146;51.114;5.654;2022-11-15T16:22:08;14.40;99.90
40434;DHT22;26146;51.114;5.654;2022-11-15T16:26:26;14.30;99.90
40434;DHT22;26146;51.114;5.654;2022-11-15T16:30:27;14.20;99.90
40434;DHT22;26146;51.114;5.654;2022-11-15T16:34:28;14.20;99.90
40434;DHT22;26146;51.114;5.654;2022-11-15T16:38:30;14.20;99.90
40434;DHT22;26146;51.114;5.654;2022-11-15T16:42:41;13.90;99.90
40434;DHT22;26146;51.114;5.654;2022-11-15T16:46:45;13.90;99.90
40434;DHT22;26146;51.114;5.654;2022-11-15T16:51:00;13.90;99.90
40434;DHT22;26146;51.114;5.654;2022-11-15T16:55:21;13.70;99.90
40434;DHT22;26146;51.114;5.654;2022-11-15T16:59:23;13.60;99.90
40434;DHT22;26146;51.114;5.654;2022-11-15T17:03:24;13.50;99.90
40434;DHT22;26146;51.114;5.654;2022-11-15T17:07:25;13.40;99.90
40434;DHT22;26146;51.114;5.654;2022-11-15T17:11:26;13.30;99.90
40434;DHT22;26146;51.114;5.654;2022-11-15T17:15:27;13.40;99.90
40434;DHT22;26146;51.114;5.654;2022-11-15T17:19:28;13.40;99.90
40434;DHT22;26146;51.114;5.654;2022-11-15T17:23:29;13.50;99.90
40434;DHT22;26146;51.114;5.654;2022-11-15T17:27:30;13.50;99.90
40434;DHT22;26146;51.114;5.654;2022-11-15T17:31:31;13.30;99.90
40434;DHT22;26146;51.114;5.654;2022-11-15T17:35:33;13.30;99.90
40434;DHT22;26146;51.114;5.654;2022-11-15T17:39:34;13.20;99.90
40434;DHT22;26146;51.114;5.654;2022-11-15T17:43:35;13.20;99.90
40434;DHT22;26146;51.114;5.654;2022-11-15T17:47:36;13.20;99.90
40434;DHT22;26146;51.114;5.654;2022-11-15T17:51:38;13.20;99.90
40434;DHT22;26146;51.114;5.654;2022-11-15T17:55:39;12.90;99.90
40434;DHT22;26146;51.114;5.654;2022-11-15T17:59:39;12.90;99.90
40434;DHT22;26146;51.114;5.654;2022-11-15T18:03:40;13.00;99.90
40434;DHT22;26146;51.114;5.654;2022-11-15T18:07:41;13.00;99.90
40434;DHT22;26146;51.114;5.654;2022-11-15T18:11:42;13.30;99.90
40434;DHT22;26146;51.114;5.654;2022-11-15T18:15:53;13.10;99.90
40434;DHT22;26146;51.114;5.654;2022-11-15T18:19:54;13.10;99.90
40434;DHT22;26146;51.114;5.654;2022-11-15T18:23:57;12.80;99.90
40434;DHT22;26146;51.114;5.654;2022-11-15T18:27:59;13.00;99.90
40434;DHT22;26146;51.114;5.654;2022-11-15T18:32:00;12.90;99.90
40434;DHT22;26146;51.114;5.654;2022-11-15T18:36:06;13.10;99.90
40434;DHT22;26146;51.114;5.654;2022-11-15T18:40:08;13.10;99.90
40434;DHT22;26146;51.114;5.654;2022-11-15T18:44:11;13.10;99.90
40434;DHT22;26146;51.114;5.654;2022-11-15T18:48:12;12.90;99.90
40434;DHT22;26146;51.114;5.654;2022-11-15T18:52:13;12.90;99.90
40434;DHT22;26146;51.114;5.654;2022-11-15T18:56:17;13.10;99.90
40434;DHT22;26146;51.114;5.654;2022-11-15T19:00:18;13.20;99.90
40434;DHT22;26146;51.114;5.654;2022-11-15T19:04:19;13.20;99.90
40434;DHT22;26146;51.114;5.654;2022-11-15T19:08:21;13.20;99.90
40434;DHT22;26146;51.114;5.654;2022-11-15T19:12:22;13.10;99.90
40434;DHT22;26146;51.114;5.654;2022-11-15T19:16:24;13.10;99.90
40434;DHT22;26146;51.114;5.654;2022-11-15T19:20:55;13.30;99.90
40434;DHT22;26146;51.114;5.654;2022-11-15T19:24:57;13.20;99.90
40434;DHT22;26146;51.114;5.654;2022-11-15T19:29:00;13.40;99.90
40434;DHT22;26146;51.114;5.654;2022-11-15T19:33:01;13.40;99.90
40434;DHT22;26146;51.114;5.654;2022-11-15T19:37:02;13.30;99.90
40434;DHT22;26146;51.114;5.654;2022-11-15T19:41:04;13.20;99.90
40434;DHT22;26146;51.114;5.654;2022-11-15T19:45:06;13.30;99.90
40434;DHT22;26146;51.114;5.654;2022-11-15T19:49:07;13.20;99.90
40434;DHT22;26146;51.114;5.654;2022-11-15T19:53:10;13.30;99.90
40434;DHT22;26146;51.114;5.654;2022-11-15T19:57:11;13.30;99.90
40434;DHT22;26146;51.114;5.654;2022-11-15T20:01:20;13.40;99.90
40434;DHT22;26146;51.114;5.654;2022-11-15T20:05:21;13.40;99.90
40434;DHT22;26146;51.114;5.654;2022-11-15T20:09:22;13.20;99.90
40434;DHT22;26146;51.114;5.654;2022-11-15T20:13:26;13.20;99.90
40434;DHT22;26146;51.114;5.654;2022-11-15T20:17:27;13.30;99.90
40434;DHT22;26146;51.114;5.654;2022-11-15T20:21:28;13.30;99.90
40434;DHT22;26146;51.114;5.654;2022-11-15T20:25:29;13.40;99.90
40434;DHT22;26146;51.114;5.654;2022-11-15T20:29:30;13.50;99.90
40434;DHT22;26146;51.114;5.654;2022-11-15T20:33:31;13.50;99.90
40434;DHT22;26146;51.114;5.654;2022-11-15T20:37:33;13.60;99.90
40434;DHT22;26146;51.114;5.654;2022-11-15T20:41:34;13.60;99.90
40434;DHT22;26146;51.114;5.654;2022-11-15T20:45:35;13.50;99.90
40434;DHT22;26146;51.114;5.654;2022-11-15T20:49:36;13.40;99.90
40434;DHT22;26146;51.114;5.654;2022-11-15T20:53:40;13.50;99.90
40434;DHT22;26146;51.114;5.654;2022-11-15T20:57:41;13.50;99.90
40434;DHT22;26146;51.114;5.654;2022-11-15T21:01:42;13.30;99.90
40434;DHT22;26146;51.114;5.654;2022-11-15T21:05:46;13.20;99.90
40434;DHT22;26146;51.114;5.654;2022-11-15T21:09:48;13.40;99.90
40434;DHT22;26146;51.114;5.654;2022-11-15T21:14:07;13.40;99.90
40434;DHT22;26146;51.114;5.654;2022-11-15T21:18:09;13.20;99.90
40434;DHT22;26146;51.114;5.654;2022-11-15T21:22:12;13.50;99.90
40434;DHT22;26146;51.114;5.654;2022-11-15T21:26:13;13.50;99.90
40434;DHT22;26146;51.114;5.654;2022-11-15T21:30:14;13.30;99.90
40434;DHT22;26146;51.114;5.654;2022-11-15T21:34:16;13.20;99.90
40434;DHT22;26146;51.114;5.654;2022-11-15T21:38:17;13.40;99.90
40434;DHT22;26146;51.114;5.654;2022-11-15T21:42:18;13.50;99.90
40434;DHT22;26146;51.114;5.654;2022-11-15T21:46:19;13.40;99.90
40434;DHT22;26146;51.114;5.654;2022-11-15T21:50:20;13.40;99.90
40434;DHT22;26146;51.114;5.654;2022-11-15T21:54:21;13.30;99.90
40434;DHT22;26146;51.114;5.654;2022-11-15T21:58:22;13.40;99.90
40434;DHT22;26146;51.114;5.654;2022-11-15T22:02:23;13.40;99.90
40434;DHT22;26146;51.114;5.654;2022-11-15T22:06:24;13.30;99.90
40434;DHT22;26146;51.114;5.654;2022-11-15T22:10:25;13.40;99.90
40434;DHT22;26146;51.114;5.654;2022-11-15T22:14:26;13.40;99.90
40434;DHT22;26146;51.114;5.654;2022-11-15T22:18:29;13.30;99.90
40434;DHT22;26146;51.114;5.654;2022-11-15T22:22:30;13.30;99.90
40434;DHT22;26146;51.114;5.654;2022-11-15T22:26:31;13.30;99.90
40434;DHT22;26146;51.114;5.654;2022-11-15T22:30:32;13.20;99.90
40434;DHT22;26146;51.114;5.654;2022-11-15T22:34:33;13.20;99.90
40434;DHT22;26146;51.114;5.654;2022-11-15T22:38:34;13.30;99.90
40434;DHT22;26146;51.114;5.654;2022-11-15T22:42:35;13.20;99.90
40434;DHT22;26146;51.114;5.654;2022-11-15T22:46:36;13.30;99.90
40434;DHT22;26146;51.114;5.654;2022-11-15T22:50:37;13.50;99.90
40434;DHT22;26146;51.114;5.654;2022-11-15T22:54:38;13.40;99.90
40434;DHT22;26146;51.114;5.654;2022-11-15T22:58:39;13.40;99.90
40434;DHT22;26146;51.114;5.654;2022-11-15T23:02:40;13.30;99.90
40434;DHT22;26146;51.114;5.654;2022-11-15T23:06:41;13.30;99.90
40434;DHT22;26146;51.114;5.654;2022-11-15T23:10:42;13.40;99.90
40434;DHT22;26146;51.114;5.654;2022-11-15T23:15:02;13.40;99.90
40434;DHT22;26146;51.114;5.654;2022-11-15T23:19:06;13.30;99.90
40434;DHT22;26146;51.114;5.654;2022-11-15T23:23:07;13.40;99.90
40434;DHT22;26146;51.114;5.654;2022-11-15T23:27:08;13.30;99.90
40434;DHT22;26146;51.114;5.654;2022-11-15T23:31:10;13.30;99.90
40434;DHT22;26146;51.114;5.654;2022-11-15T23:35:29;13.20;99.90
40434;DHT22;26146;51.114;5.654;2022-11-15T23:39:30;13.40;99.90
40434;DHT22;26146;51.114;5.654;2022-11-15T23:43:31;13.40;99.90
40434;DHT22;26146;51.114;5.654;2022-11-15T23:47:32;13.40;99.90
40434;DHT22;26146;51.114;5.654;2022-11-15T23:51:33;13.40;99.90
40434;DHT22;26146;51.114;5.654;2022-11-15T23:55:34;13.30;99.90
40434;DHT22;26146;51.114;5.654;2022-11-15T23:59:35;13.30;99.90
